Terminal Aerodrome Forecast
Issued by NWS

Home | Current Version | Previous Version | Text Only | Print | Product List | Glossary On
Versions: 1 2 3 4 5 6 7 8 9 10 11 12 13 14
000
FTUS45 KABQ 162300
TAFTCC
TAF
KTCC 162330Z 1700/1724 07020G30KT P6SM BKN250
     FM170030 03027G37KT P6SM SCT080
     FM170300 03019G29KT P6SM SCT060
     FM171200 05013KT P6SM BKN040
     FM171500 06008KT P6SM SCT050 SCT250
     FM172000 12007KT P6SM SCT070 SCT250=

USA.gov is the U.S. government's official web portal to all federal, state and local government web resources and services.